Airfield :
LOGIN :

Register | Disclaimer

   EN    FR    IT 

 










Legend :    VFR   Marginal VFR   IFR   Intensive IFR   Very Intensive IFR
Visi :
Ceiling :
>= 8 km
>= 3000ft
5 to 8 km
1000 to 3000 ft
1500m to 5 km
500 to 1000 ft
800 to 1500m
200 to 500 ft
< 800m
< 200 ft
Symbols :   Thunderstorms  Fog  Heavy snow  Heavy precipitations  Wind > 20 kt
SIGMETs :     Misc.  Thunderstorms  Icing  Turbulence  Mountain Waves  Volcanic Ashes







- Airport Elevation : 512 ft
- IATA code : URO
- Download approach charts


LFOP - Rouen Vallée de Seine

CURRENT METAR :
  • 242030Z AUTO 31003KT 270V350 9999 FEW040 OVC052 14/10 Q1014

EXPIRED METARs :
  • 242000Z AUTO 32008KT 9999 SCT041 OVC052 15/11 Q1014 TEMPO BKN013 BECMG 25010KT
  • 241930Z AUTO 29007KT 260V320 9999 FEW038 BKN044 OVC052 16/11 Q1014 TEMPO BKN013
  • 241900Z AUTO 23007KT 9999 BKN041 OVC048 16/10 Q1014 TEMPO BKN013
  • 241830Z AUTO 22009KT 9999 BKN045 OVC052 17/10 Q1014 TEMPO BKN013
  • 241800Z AUTO 23009KT 9999 BKN044 17/10 Q1014 TEMPO BKN013

TAF TAF LFOP
Valid from the 24 at 18:00 until the 25 at 18:00 UTC


241700Z 2418/2518 25010KT 9999 BKN040
TEMPO 2418/2504 BKN013
TEMPO 2504/2509 3000 RADZ OVC006
TEMPO 2515/2518 27020G30KT 3000 SHRA BKN020TCU
ATIS : +33 2 35 80 80 34
Met : +33 2 32 86 52 80
No reported NOTAMs for that airfield.



MET'MAP, your aeronautical weather chart ! - Copyright ORBIFLY December 2007 - Disclaimer

ORBIFLY MET'MAP TEAM :

Programming & Development : Alexandra Zaïnal
Concept & Development : Baudouin d'Aumeries
Co-Development & Prog : Marc-Olivier Méhu
Technical & hardware support : Manuel Goepfert

Contact : metmap@orbifly.com




SOURCES & CREDITS :

   NOAA